createdAt,value
2018-08-16T17:18:59.415Z,2.60
2018-08-16T17:21:30.374Z,2.60
2018-08-16T17:24:01.303Z,2.67
2018-08-16T17:26:33.491Z,2.77
2018-08-16T17:29:05.127Z,2.83
2018-08-16T17:31:35.956Z,2.97
2018-08-16T17:34:06.900Z,2.67
2018-08-16T17:36:38.710Z,2.43
2018-08-16T17:39:10.088Z,2.80
2018-08-16T17:41:41.381Z,2.50
2018-08-16T17:44:14.299Z,2.50
2018-08-16T17:46:45.731Z,2.80
2018-08-16T17:49:17.535Z,2.60
2018-08-16T17:51:49.938Z,2.60
2018-08-16T17:54:22.170Z,2.70
2018-08-16T17:56:53.596Z,2.63
2018-08-16T17:59:25.170Z,2.50
2018-08-16T18:01:56.142Z,2.63
2018-08-16T18:04:30.478Z,4.17
2018-08-16T18:07:02.979Z,3.80
2018-08-16T18:09:37.974Z,4.37
2018-08-16T18:12:18.873Z,3.70
2018-08-16T18:15:01.989Z,6.10
2018-08-16T18:17:35.146Z,3.27
2018-08-16T18:20:06.539Z,2.87
2018-08-16T18:22:42.754Z,2.70
2018-08-16T18:25:17.506Z,3.20
2018-08-16T18:27:50.844Z,3.00
2018-08-16T18:30:24.200Z,2.73
2018-08-16T18:32:55.773Z,3.17
2018-08-16T18:35:28.004Z,3.23
2018-08-16T18:38:03.063Z,3.10
2018-08-16T18:40:35.303Z,2.60
2018-08-16T18:43:06.289Z,2.93
2018-08-16T18:45:40.517Z,3.07
2018-08-16T18:48:11.971Z,3.00
2018-08-16T18:50:42.841Z,3.10
2018-08-16T18:53:13.645Z,2.77
2018-08-16T18:55:45.874Z,3.00
2018-08-16T18:58:16.664Z,3.07
2018-08-16T19:00:47.553Z,2.50
2018-08-16T19:03:19.510Z,2.83
2018-08-16T19:05:50.797Z,3.47
2018-08-16T19:08:22.564Z,3.43
2018-08-16T19:11:03.377Z,3.40
2018-08-16T19:13:37.244Z,3.20
2018-08-16T19:16:10.340Z,3.20
2018-08-16T19:18:43.486Z,3.10
2018-08-16T19:21:15.898Z,3.63
2018-08-16T19:23:48.910Z,3.00
2018-08-16T19:26:23.105Z,3.00
2018-08-16T19:28:57.153Z,3.33
2018-08-16T19:31:31.690Z,3.33
2018-08-16T19:34:04.401Z,3.07
2018-08-16T19:36:37.956Z,3.30
2018-08-16T19:39:13.687Z,3.67
2018-08-16T19:41:45.972Z,3.60
2018-08-16T19:44:18.204Z,3.70
2018-08-16T19:46:52.075Z,3.50
2018-08-16T19:49:24.269Z,3.63
2018-08-16T19:51:56.984Z,3.43
2018-08-16T19:54:28.846Z,3.50
2018-08-16T19:57:01.039Z,4.00
2018-08-16T19:59:32.991Z,3.47
2018-08-16T20:02:04.984Z,3.50
2018-08-16T20:04:36.837Z,3.50
2018-08-16T20:07:10.687Z,3.53
2018-08-16T20:09:43.734Z,4.13
2018-08-16T20:12:16.177Z,3.63
2018-08-16T20:14:48.301Z,4.10
2018-08-16T20:17:20.335Z,4.17
2018-08-16T20:19:54.330Z,3.93
2018-08-16T20:22:26.611Z,3.53
2018-08-16T20:24:57.912Z,3.90
2018-08-16T20:27:30.876Z,3.60
2018-08-16T20:30:02.684Z,4.00
2018-08-16T20:32:37.215Z,4.17
2018-08-16T20:35:08.465Z,3.60
2018-08-16T20:37:41.641Z,3.73
2018-08-16T20:40:13.167Z,4.23
2018-08-16T20:42:44.476Z,3.97
2018-08-16T20:45:15.657Z,3.37
2018-08-16T20:47:48.211Z,3.30
2018-08-16T20:50:21.773Z,3.63
2018-08-16T20:52:53.607Z,3.90
2018-08-16T20:55:25.071Z,3.80
2018-08-16T20:58:00.552Z,3.60
2018-08-16T21:00:33.565Z,3.20
2018-08-16T21:03:10.012Z,3.93
2018-08-16T21:05:44.218Z,3.70
2018-08-16T21:08:15.728Z,4.37
2018-08-16T21:10:47.721Z,4.80
2018-08-16T21:13:22.514Z,4.07
2018-08-16T21:15:57.220Z,3.63
2018-08-16T21:18:30.025Z,3.47
2018-08-16T21:21:01.037Z,3.70
2018-08-16T21:23:32.010Z,3.50
2018-08-16T21:26:03.184Z,3.47
2018-08-16T21:28:34.133Z,3.30
2018-08-16T21:31:05.991Z,3.53
2018-08-16T21:33:40.795Z,3.63
2018-08-16T21:36:11.841Z,3.90
2018-08-16T21:38:42.761Z,3.40
2018-08-16T21:41:13.678Z,3.90
2018-08-16T21:43:46.173Z,3.30
2018-08-16T21:46:16.998Z,4.03
2018-08-16T21:48:49.407Z,3.90
2018-08-16T21:51:20.444Z,3.50
2018-08-16T21:53:51.251Z,3.40
2018-08-16T21:56:22.157Z,3.30
2018-08-16T21:58:53.140Z,4.03
2018-08-16T22:01:23.994Z,3.27
2018-08-16T22:03:54.874Z,3.87
2018-08-16T22:06:42.474Z,3.60
2018-08-16T22:09:14.142Z,3.87
2018-08-16T22:11:45.003Z,3.70
2018-08-16T22:14:15.715Z,3.77
2018-08-16T22:16:46.508Z,4.27
2018-08-16T22:19:17.322Z,4.20
2018-08-16T22:21:48.088Z,4.30
2018-08-16T22:24:19.048Z,4.00
2018-08-16T22:26:50.167Z,4.37
2018-08-16T22:29:20.915Z,3.93
2018-08-16T22:31:51.959Z,3.83
2018-08-16T22:34:22.708Z,4.13
2018-08-16T22:36:54.539Z,4.27
2018-08-16T22:39:25.390Z,4.30
2018-08-16T22:41:56.080Z,4.83
2018-08-16T22:44:26.879Z,4.73
2018-08-16T22:46:57.701Z,4.33
2018-08-16T22:49:29.320Z,4.50
2018-08-16T22:52:01.132Z,4.90
2018-08-16T22:54:31.960Z,4.27
2018-08-16T22:57:05.653Z,5.03
2018-08-16T22:59:36.409Z,4.37
2018-08-16T23:02:07.316Z,5.00
2018-08-16T23:04:38.515Z,4.30
2018-08-16T23:07:09.533Z,5.30
2018-08-16T23:09:47.713Z,5.10
2018-08-16T23:12:18.485Z,4.73
2018-08-16T23:14:49.593Z,4.50
2018-08-16T23:17:20.353Z,4.20
2018-08-16T23:19:51.239Z,4.80
2018-08-16T23:22:22.869Z,4.23
2018-08-16T23:24:54.080Z,4.77
2018-08-16T23:27:24.965Z,4.93
2018-08-16T23:29:55.632Z,4.60
2018-08-16T23:32:26.500Z,4.40
2018-08-16T23:34:57.967Z,4.97
2018-08-16T23:37:28.609Z,4.50
2018-08-16T23:39:59.371Z,4.43
2018-08-16T23:42:30.191Z,5.37
2018-08-16T23:45:01.035Z,4.60
2018-08-16T23:47:31.645Z,4.20
2018-08-16T23:50:02.241Z,3.60
2018-08-16T23:52:33.136Z,3.60
2018-08-16T23:55:03.744Z,3.83
2018-08-16T23:57:34.232Z,5.70
